createdAt,value
2023-04-12T00:02:24.904Z,0.70
2023-04-12T00:06:32.687Z,1.53
2023-04-12T00:10:36.153Z,1.17
2023-04-12T00:14:39.760Z,0.53
2023-04-12T00:18:45.914Z,5.57
2023-04-12T00:22:50.555Z,0.50
2023-04-12T00:26:53.939Z,5.50
2023-04-12T00:30:57.402Z,2.33
2023-04-12T00:35:02.368Z,1.00
2023-04-12T00:39:06.488Z,1.00
2023-04-12T00:43:10.441Z,0.63
2023-04-12T00:47:14.760Z,1.00
2023-04-12T00:51:22.480Z,2.17
2023-04-12T00:55:26.428Z,1.50
2023-04-12T00:59:29.903Z,1.00
2023-04-12T01:03:33.703Z,2.10
2023-04-12T01:07:51.662Z,0.70
2023-04-12T01:12:07.593Z,0.70
2023-04-12T01:16:22.533Z,1.53
2023-04-12T01:20:31.509Z,1.13
2023-04-12T01:24:50.323Z,3.47
2023-04-12T01:28:56.637Z,0.60
2023-04-12T01:33:05.024Z,0.80
2023-04-12T01:37:09.102Z,2.83
2023-04-12T01:41:13.439Z,0.60
2023-04-12T01:45:18.284Z,1.20
2023-04-12T01:49:25.891Z,1.17
2023-04-12T01:53:34.337Z,1.17
2023-04-12T01:57:39.180Z,2.63
2023-04-12T02:01:45.255Z,0.93
2023-04-12T02:05:48.968Z,1.57
2023-04-12T02:09:52.569Z,1.70
2023-04-12T02:13:56.657Z,1.03
2023-04-12T02:18:03.492Z,1.20
2023-04-12T02:22:08.399Z,1.23
2023-04-12T02:26:11.955Z,1.97
2023-04-12T02:30:15.946Z,1.13
2023-04-12T02:34:21.614Z,1.40
2023-04-12T02:38:25.092Z,2.30
2023-04-12T02:42:28.678Z,1.70
2023-04-12T02:46:32.253Z,0.97
2023-04-12T02:50:38.180Z,1.20
2023-04-12T02:54:41.581Z,1.13
2023-04-12T02:58:45.269Z,2.23
2023-04-12T03:02:50.072Z,1.63
2023-04-12T03:06:55.279Z,1.20
2023-04-12T03:10:58.935Z,2.40
2023-04-12T03:15:02.812Z,1.53
2023-04-12T03:19:06.730Z,1.70
2023-04-12T03:23:11.706Z,0.90
2023-04-12T03:27:15.490Z,2.70
2023-04-12T03:31:21.116Z,0.90
2023-04-12T03:35:24.910Z,1.37
2023-04-12T03:39:29.820Z,1.80
2023-04-12T03:43:36.206Z,1.33
2023-04-12T03:47:39.932Z,1.83
2023-04-12T03:51:44.008Z,1.73
2023-04-12T03:55:48.972Z,1.30
2023-04-12T03:59:53.040Z,1.03
2023-04-12T04:03:57.330Z,2.27
2023-04-12T04:08:02.558Z,2.17
2023-04-12T04:12:09.276Z,3.80
2023-04-12T04:16:13.286Z,1.80
2023-04-12T04:20:18.113Z,5.33
2023-04-12T04:24:22.552Z,1.60
2023-04-12T04:28:27.945Z,5.23
2023-04-12T04:32:31.748Z,1.23
2023-04-12T04:36:38.956Z,2.00
2023-04-12T04:40:42.379Z,2.60
2023-04-12T04:44:47.946Z,2.93
2023-04-12T04:48:55.296Z,2.40
2023-04-12T04:53:00.083Z,1.53
2023-04-12T04:57:08.041Z,8.03
2023-04-12T05:01:13.799Z,2.13
2023-04-12T05:05:17.741Z,2.00
2023-04-12T05:09:21.352Z,2.47
2023-04-12T05:13:25.117Z,3.93
2023-04-12T05:17:30.234Z,3.33
2023-04-12T05:21:35.285Z,2.40
2023-04-12T05:25:44.655Z,2.50
2023-04-12T05:29:48.423Z,2.07
2023-04-12T05:33:54.833Z,5.00
2023-04-12T05:37:58.289Z,1.50
2023-04-12T05:42:02.280Z,3.20
2023-04-12T05:46:07.979Z,2.40
2023-04-12T05:50:13.410Z,6.60
2023-04-12T05:54:21.126Z,2.60
2023-04-12T05:58:24.786Z,3.00
2023-04-12T06:02:28.583Z,4.00
2023-04-12T06:06:33.804Z,1.77
2023-04-12T06:10:37.358Z,4.20
2023-04-12T06:14:40.757Z,2.03
2023-04-12T06:18:44.345Z,1.57
2023-04-12T06:22:49.155Z,3.03
2023-04-12T06:26:52.720Z,4.30
2023-04-12T06:30:56.665Z,1.53
2023-04-12T06:35:00.307Z,3.00
2023-04-12T06:39:05.305Z,1.47
2023-04-12T06:43:09.095Z,2.10
2023-04-12T06:47:12.559Z,3.17
2023-04-12T06:51:16.296Z,1.43
2023-04-12T06:55:21.660Z,2.97
2023-04-12T06:59:25.177Z,1.23
2023-04-12T07:03:31.905Z,1.43
2023-04-12T07:07:35.443Z,2.90
2023-04-12T07:11:40.566Z,1.30
2023-04-12T07:15:45.354Z,2.80
2023-04-12T07:19:50.466Z,2.30
2023-04-12T07:23:54.033Z,1.50
2023-04-12T07:27:58.948Z,1.83
2023-04-12T07:32:02.368Z,5.03
2023-04-12T07:36:06.889Z,1.63
2023-04-12T07:40:10.848Z,2.17
2023-04-12T07:44:16.106Z,3.47
2023-04-12T07:48:19.528Z,3.10
2023-04-12T07:52:23.233Z,1.40
2023-04-12T07:56:27.218Z,2.63
2023-04-12T08:00:34.474Z,1.10
2023-04-12T08:04:38.629Z,1.27
2023-04-12T08:08:42.270Z,4.70
2023-04-12T08:12:45.926Z,1.93
2023-04-12T08:16:50.786Z,2.10
2023-04-12T08:20:54.369Z,1.50
2023-04-12T08:24:57.992Z,2.10
2023-04-12T08:29:02.025Z,5.70
2023-04-12T08:33:07.059Z,1.20
2023-04-12T08:37:10.840Z,3.10
2023-04-12T08:41:15.221Z,1.50
2023-04-12T08:45:19.458Z,3.50
2023-04-12T08:49:25.207Z,1.83
2023-04-12T08:53:29.048Z,4.00
2023-04-12T08:57:32.882Z,2.60
2023-04-12T09:01:37.273Z,1.50
2023-04-12T09:05:42.280Z,2.60
2023-04-12T09:09:48.319Z,1.57
2023-04-12T09:13:52.160Z,1.90
2023-04-12T09:18:08.389Z,3.27
2023-04-12T09:22:13.513Z,2.77
2023-04-12T09:26:29.919Z,1.73
2023-04-12T09:30:43.416Z,4.20
2023-04-12T09:34:58.007Z,3.73
2023-04-12T09:39:03.386Z,3.10
2023-04-12T09:43:07.653Z,2.90
2023-04-12T09:47:11.209Z,6.97
2023-04-12T09:51:14.957Z,4.80
2023-04-12T09:55:21.207Z,3.17
2023-04-12T09:59:28.546Z,4.73
2023-04-12T10:03:32.694Z,3.47
2023-04-12T10:07:38.436Z,2.67
2023-04-12T10:11:45.361Z,2.50
2023-04-12T10:15:52.781Z,2.23
2023-04-12T10:19:57.826Z,3.13
2023-04-12T10:24:01.895Z,3.00
2023-04-12T10:28:18.888Z,3.13
2023-04-12T10:32:24.457Z,10.73
2023-04-12T10:36:58.058Z,2.33
2023-04-12T10:41:25.704Z,4.13
2023-04-12T10:45:41.800Z,4.67
2023-04-12T10:50:25.207Z,2.70
2023-04-12T10:54:36.536Z,4.43
2023-04-12T10:59:00.272Z,2.50
2023-04-12T11:03:12.944Z,3.30
2023-04-12T11:07:17.383Z,2.27
2023-04-12T11:11:22.895Z,2.60
2023-04-12T11:15:30.932Z,2.00
2023-04-12T11:19:39.234Z,2.10
2023-04-12T11:23:47.353Z,2.17
2023-04-12T11:27:52.445Z,4.33
2023-04-12T11:31:56.540Z,3.57
2023-04-12T11:36:04.692Z,5.23
2023-04-12T11:40:10.802Z,2.97
2023-04-12T11:44:14.998Z,5.10
2023-04-12T11:48:18.759Z,3.57
2023-04-12T11:52:29.961Z,3.10
2023-04-12T11:56:33.627Z,13.50
2023-04-12T12:00:38.204Z,2.90
2023-04-12T12:04:44.780Z,2.50
2023-04-12T12:08:51.172Z,3.67
2023-04-12T12:12:59.227Z,3.20
2023-04-12T12:17:03.320Z,2.77
2023-04-12T12:21:10.919Z,6.37
2023-04-12T12:25:15.824Z,3.80
2023-04-12T12:29:19.873Z,3.27
2023-04-12T12:33:32.059Z,2.73
2023-04-12T12:37:50.845Z,3.13
2023-04-12T12:41:57.391Z,5.20
2023-04-12T12:46:01.023Z,2.50
2023-04-12T12:50:04.662Z,3.93
2023-04-12T12:54:08.381Z,2.60
2023-04-12T12:58:13.184Z,3.40
2023-04-12T13:02:20.087Z,3.00
2023-04-12T13:06:25.951Z,5.10
2023-04-12T13:10:29.570Z,3.10
2023-04-12T13:14:34.414Z,5.43
2023-04-12T13:18:38.284Z,6.10
2023-04-12T13:22:41.719Z,3.10
2023-04-12T13:26:45.145Z,5.40
2023-04-12T13:30:49.936Z,4.50
2023-04-12T13:34:53.772Z,3.20
2023-04-12T13:38:57.569Z,3.53
2023-04-12T13:43:01.292Z,3.97
2023-04-12T13:47:06.457Z,4.20
2023-04-12T13:51:10.438Z,3.83
2023-04-12T13:55:14.344Z,2.70
2023-04-12T13:59:17.876Z,2.87
2023-04-12T14:03:22.896Z,2.97
2023-04-12T14:07:26.426Z,3.10
2023-04-12T14:11:30.085Z,3.87
2023-04-12T14:15:33.513Z,3.47
2023-04-12T14:19:38.690Z,3.63
2023-04-12T14:23:42.632Z,3.50
2023-04-12T14:27:46.478Z,3.10
2023-04-12T14:31:49.983Z,3.00
2023-04-12T14:35:54.830Z,3.50
2023-04-12T14:39:58.430Z,2.50
2023-04-12T14:44:02.087Z,3.27
2023-04-12T14:48:05.814Z,3.90
2023-04-12T14:52:10.903Z,3.33
2023-04-12T14:56:25.349Z,4.20
2023-04-12T15:00:31.054Z,3.40
2023-04-12T15:04:36.171Z,6.73
2023-04-12T15:08:43.144Z,2.73
2023-04-12T15:12:46.847Z,6.07
2023-04-12T15:16:50.588Z,2.60
2023-04-12T15:20:55.197Z,3.23
2023-04-12T15:25:00.024Z,4.87
2023-04-12T15:29:03.957Z,4.47
2023-04-12T15:33:07.771Z,3.00
2023-04-12T15:37:11.991Z,2.93
2023-04-12T15:41:16.916Z,2.70
2023-04-12T15:45:20.593Z,2.77
2023-04-12T15:49:26.427Z,2.57
2023-04-12T15:53:29.956Z,2.50
2023-04-12T15:57:36.769Z,2.47
2023-04-12T16:01:40.424Z,2.83
2023-04-12T16:05:44.555Z,3.07
2023-04-12T16:09:48.171Z,3.20
2023-04-12T16:13:54.365Z,4.70
2023-04-12T16:17:58.802Z,3.67
2023-04-12T16:22:03.913Z,3.17
2023-04-12T16:26:07.815Z,3.70
2023-04-12T16:30:15.901Z,3.33
2023-04-12T16:34:22.014Z,3.17
2023-04-12T16:38:26.230Z,2.67
2023-04-12T16:42:32.197Z,2.47
2023-04-12T16:46:38.359Z,2.93
2023-04-12T16:50:45.092Z,6.17
2023-04-12T16:54:49.254Z,4.93
2023-04-12T16:58:53.292Z,5.73
2023-04-12T17:02:59.781Z,4.00
2023-04-12T17:07:04.229Z,6.53
2023-04-12T17:11:08.678Z,3.57
2023-04-12T17:15:13.737Z,3.10
2023-04-12T17:19:20.510Z,3.70
2023-04-12T17:23:24.658Z,4.70
2023-04-12T17:27:30.225Z,3.70
2023-04-12T17:35:43.391Z,4.03
2023-04-12T17:39:47.622Z,4.00
2023-04-12T17:43:52.999Z,4.27
2023-04-12T17:47:57.739Z,6.03
2023-04-12T17:52:04.064Z,6.63
2023-04-12T17:56:08.672Z,6.60
2023-04-12T18:00:21.004Z,7.63
2023-04-12T18:04:29.654Z,6.77
2023-04-12T18:08:37.749Z,6.80
2023-04-12T18:12:41.878Z,11.73
2023-04-12T18:16:45.913Z,5.23
2023-04-12T18:20:49.686Z,8.87
2023-04-12T18:24:57.061Z,7.43
2023-04-12T18:29:04.484Z,6.67
2023-04-12T18:33:09.612Z,7.00
2023-04-12T18:37:14.984Z,4.47
2023-04-12T18:41:24.786Z,5.43
2023-04-12T18:45:31.145Z,4.00
2023-04-12T18:49:39.952Z,4.10
2023-04-12T18:53:50.116Z,4.10
2023-04-12T18:57:56.282Z,5.03
2023-04-12T19:02:00.579Z,4.47
2023-04-12T19:06:05.705Z,4.50
2023-04-12T19:10:16.239Z,5.30
2023-04-12T19:14:24.041Z,6.20
2023-04-12T19:18:31.165Z,7.00
2023-04-12T19:22:38.566Z,5.53
2023-04-12T19:27:04.547Z,7.10
2023-04-12T19:31:10.865Z,6.87
2023-04-12T19:35:16.912Z,6.57
2023-04-12T19:39:23.576Z,5.23
2023-04-12T19:43:28.775Z,6.43
2023-04-12T19:47:34.989Z,6.70
2023-04-12T19:51:40.739Z,5.40
2023-04-12T19:55:46.085Z,6.87
2023-04-12T19:59:51.724Z,5.33
2023-04-12T20:03:57.623Z,5.67
2023-04-12T20:08:06.470Z,4.53
2023-04-12T20:12:12.228Z,5.83
2023-04-12T20:20:36.443Z,7.30
2023-04-12T20:24:42.329Z,7.23
2023-04-12T20:28:47.644Z,6.67
2023-04-12T20:32:54.645Z,7.57
2023-04-12T20:37:00.973Z,8.23
2023-04-12T20:41:05.626Z,16.07
2023-04-12T20:45:11.846Z,12.27
2023-04-12T20:49:15.668Z,10.90
2023-04-12T20:53:21.587Z,13.07
2023-04-12T20:57:26.718Z,10.40
2023-04-12T21:01:30.887Z,10.57
2023-04-12T21:05:34.416Z,9.43
2023-04-12T21:09:39.504Z,14.67
2023-04-12T21:13:44.729Z,11.57
2023-04-12T21:17:48.273Z,14.07
2023-04-12T21:21:52.076Z,9.00
2023-04-12T21:25:57.137Z,9.67
2023-04-12T21:30:00.633Z,11.90
2023-04-12T21:34:04.324Z,14.23
2023-04-12T21:38:07.810Z,9.93
2023-04-12T21:42:12.822Z,11.67
2023-04-12T21:46:16.574Z,10.40
2023-04-12T21:50:21.776Z,12.23
2023-04-12T21:54:26.919Z,10.37
2023-04-12T21:58:34.327Z,10.93
2023-04-12T22:02:37.954Z,17.83
2023-04-12T22:06:44.577Z,9.80
2023-04-12T22:10:49.117Z,9.50
2023-04-12T22:14:54.209Z,10.80
2023-04-12T22:18:59.413Z,10.93
2023-04-12T22:23:03.337Z,8.23
2023-04-12T22:27:07.155Z,10.73
2023-04-12T22:31:16.310Z,10.03
2023-04-12T22:35:20.701Z,7.90
2023-04-12T22:39:24.331Z,9.50
2023-04-12T22:43:34.384Z,11.83
2023-04-12T22:47:41.672Z,9.63
2023-04-12T22:51:45.392Z,7.50
2023-04-12T22:55:48.779Z,7.83
2023-04-12T22:59:53.630Z,7.60
2023-04-12T23:04:01.165Z,7.03
2023-04-12T23:08:05.083Z,7.23
2023-04-12T23:12:09.034Z,8.50
2023-04-12T23:16:12.570Z,7.77
2023-04-12T23:20:17.687Z,8.43
2023-04-12T23:24:21.159Z,7.20
2023-04-12T23:28:26.704Z,5.43
2023-04-12T23:32:30.256Z,8.33
2023-04-12T23:36:35.451Z,5.57
2023-04-12T23:40:38.937Z,7.40
2023-04-12T23:44:42.695Z,6.07
2023-04-12T23:48:46.090Z,6.60
2023-04-12T23:52:51.091Z,7.40
2023-04-12T23:56:54.530Z,7.33
